Time;durP1;ratioP1;P1;durP2;ratioP2;P2;SDS_P1;SDS_P2;PMS_P1;PMS_P2;Temp;Humidity;BMP_temperature;BMP_pressure;BME280_temperature;BME280_humidity;BME280_pressure;Samples;Min_cycle;Max_cycle;Signal;HPM_P1;HPM_P2
2022/10/08 00:00:15;;;;;;;7.53;5.30;;;;;;;12.34;76.60;95589.16;5095184;28;20445;-78
2022/10/08 00:02:42;;;;;;;9.50;4.47;;;;;;;12.35;76.10;95583.75;5094733;28;20455;-78
2022/10/08 00:05:09;;;;;;;6.57;4.50;;;;;;;12.38;76.01;95583.50;5094426;28;20557;-78
2022/10/08 00:07:36;;;;;;;5.10;4.53;;;;;;;12.42;76.20;95586.72;5094596;28;20451;-78
2022/10/08 00:10:06;;;;;;;4.77;4.20;;;;;;;12.39;75.95;95586.97;5094838;28;20490;-78
2022/10/08 00:12:33;;;;;;;5.30;4.10;;;;;;;12.47;75.65;95589.00;5094611;28;20937;-78
2022/10/08 00:15:00;;;;;;;7.73;5.70;;;;;;;12.46;75.33;95584.72;5094410;28;20929;-77
2022/10/08 00:17:26;;;;;;;7.83;5.33;;;;;;;12.51;75.94;95574.63;5094500;28;20664;-77
2022/10/08 00:19:55;;;;;;;6.10;4.70;;;;;;;12.56;76.01;95575.09;5094661;28;20493;-77
2022/10/08 00:22:22;;;;;;;10.40;4.23;;;;;;;12.61;75.36;95580.81;5094703;28;20938;-78
2022/10/08 00:24:52;;;;;;;5.10;4.60;;;;;;;12.62;76.07;95582.47;5094157;28;20485;-77
2022/10/08 00:27:22;;;;;;;8.70;4.57;;;;;;;12.62;75.78;95580.69;5094237;28;20450;-78
2022/10/08 00:29:49;;;;;;;8.13;4.37;;;;;;;12.62;75.98;95579.84;5043027;28;20946;-77
2022/10/08 00:32:18;;;;;;;8.90;4.60;;;;;;;12.64;76.02;95577.94;5094351;28;20439;-77
2022/10/08 00:34:45;;;;;;;3.80;3.50;;;;;;;12.66;75.21;95578.63;5094469;28;20448;-78
2022/10/08 00:37:13;;;;;;;15.20;6.67;;;;;;;12.64;75.64;95578.75;5094228;28;20820;-77
2022/10/08 00:39:40;;;;;;;15.67;7.10;;;;;;;12.64;75.79;95564.75;5094177;28;20801;-78
2022/10/08 00:42:07;;;;;;;11.60;6.57;;;;;;;12.61;75.29;95576.38;5093817;28;20448;-77
2022/10/08 00:44:57;;;;;;;18.83;7.10;;;;;;;12.61;75.84;95568.47;5093890;28;21031;-77
2022/10/08 00:47:33;;;;;;;8.77;6.20;;;;;;;12.33;76.83;95569.88;5093933;28;20866;-77
2022/10/08 00:50:03;;;;;;;7.00;6.30;;;;;;;12.32;76.64;95570.84;5093801;28;20534;-78
2022/10/08 00:52:34;;;;;;;16.13;7.80;;;;;;;12.28;77.46;95565.97;5093546;28;20479;-78
2022/10/08 00:55:05;;;;;;;6.70;6.00;;;;;;;12.26;77.09;95560.81;5093636;28;20455;-77
2022/10/08 00:57:33;;;;;;;20.97;10.47;;;;;;;12.20;78.11;95558.69;5093879;28;20444;-78
2022/10/08 01:00:03;;;;;;;17.70;9.37;;;;;;;12.12;77.81;95555.81;5093883;28;20439;-77
2022/10/08 01:02:30;;;;;;;19.03;10.73;;;;;;;12.08;77.69;95555.25;5093541;28;20443;-78
2022/10/08 01:04:57;;;;;;;22.37;9.37;;;;;;;12.02;78.40;95550.47;5093574;28;20483;-78
2022/10/08 01:07:28;;;;;;;15.00;8.53;;;;;;;12.02;78.17;95552.25;5093439;28;20862;-77
2022/10/08 01:10:01;;;;;;;13.83;6.67;;;;;;;12.00;77.52;95547.13;5093682;28;20444;-77
2022/10/08 01:12:40;;;;;;;6.63;5.10;;;;;;;11.98;77.64;95542.94;5093887;28;20451;-78
2022/10/08 01:15:22;;;;;;;9.90;5.00;;;;;;;11.92;77.97;95538.19;5093558;28;20461;-78
2022/10/08 01:17:55;;;;;;;11.60;7.50;;;;;;;11.94;77.65;95525.75;5093299;28;20444;-77
2022/10/08 01:20:33;;;;;;;8.23;4.80;;;;;;;11.93;78.26;95529.34;5041223;28;20840;-77
2022/10/08 01:23:26;;;;;;;8.50;5.00;;;;;;;11.89;78.35;95525.28;5093210;28;20439;-77
2022/10/08 01:25:59;;;;;;;6.90;4.50;;;;;;;11.87;78.76;95522.78;5030629;28;20484;-77
2022/10/08 01:28:32;;;;;;;5.40;4.10;;;;;;;11.91;78.52;95515.47;5030598;28;20445;-77
2022/10/08 01:31:06;;;;;;;7.90;5.30;;;;;;;11.93;78.32;95519.66;5030473;28;20441;-78
2022/10/08 01:33:41;;;;;;;7.17;5.00;;;;;;;11.95;77.57;95517.75;5030658;28;20840;-78
2022/10/08 01:36:10;;;;;;;10.10;4.53;;;;;;;11.94;78.21;95518.69;5030267;28;20456;-77
2022/10/08 01:38:43;;;;;;;5.70;4.67;;;;;;;11.98;77.79;95520.13;5030451;28;20513;-77
2022/10/08 01:41:15;;;;;;;5.37;4.33;;;;;;;12.02;77.39;95511.03;5030401;28;20458;-78
2022/10/08 01:43:48;;;;;;;4.60;4.20;;;;;;;12.02;77.23;95507.56;5030278;28;20449;-77
2022/10/08 01:46:20;;;;;;;6.77;4.17;;;;;;;12.02;77.31;95505.75;5030459;28;21042;-77
2022/10/08 01:48:50;;;;;;;5.07;4.47;;;;;;;12.02;77.72;95502.28;5030289;28;20450;-77
2022/10/08 01:51:22;;;;;;;4.73;3.90;;;;;;;12.01;76.89;95503.25;5029944;28;20470;-77
2022/10/08 01:53:50;;;;;;;8.37;4.10;;;;;;;12.03;77.39;95503.97;5030357;28;20450;-77
2022/10/08 01:56:22;;;;;;;5.67;3.97;;;;;;;12.03;77.01;95498.69;5043143;28;20453;-78
2022/10/08 01:58:55;;;;;;;3.97;3.20;;;;;;;12.03;76.93;95493.44;5092707;28;20455;-77
2022/10/08 02:01:27;;;;;;;4.13;3.77;;;;;;;12.00;76.84;95491.06;5092680;28;20452;-78
2022/10/08 02:06:44;;;;;;;6.23;3.93;;;;;;;12.00;76.74;95497.16;5092529;28;21002;-78
2022/10/08 02:09:11;;;;;;;7.07;4.70;;;;;;;11.95;77.17;95501.13;5092532;28;20500;-77
2022/10/08 02:11:38;;;;;;;4.10;3.40;;;;;;;11.95;76.42;95503.75;5092060;28;20451;-78
2022/10/08 02:14:07;;;;;;;4.27;3.90;;;;;;;11.96;76.38;95505.41;5092810;28;20446;-77
2022/10/08 02:16:36;;;;;;;5.13;4.20;;;;;;;11.95;76.70;95506.38;5092172;28;20447;-78
2022/10/08 02:19:09;;;;;;;5.57;5.10;;;;;;;11.97;76.96;95499.19;5092533;28;20511;-78
2022/10/08 02:21:39;;;;;;;3.43;3.13;;;;;;;11.97;76.56;95500.03;5092350;28;20921;-77
2022/10/08 02:24:12;;;;;;;4.77;3.83;;;;;;;11.99;76.87;95506.00;5092247;28;20530;-78
2022/10/08 02:26:46;;;;;;;4.93;4.37;;;;;;;11.84;77.93;95514.28;5092125;28;20461;-77
2022/10/08 02:29:19;;;;;;;12.17;5.80;;;;;;;11.26;80.06;95511.78;5092396;28;20852;-77
2022/10/08 02:31:50;;;;;;;8.03;6.10;;;;;;;11.27;79.20;95510.81;5092054;28;20533;-78
2022/10/08 02:34:21;;;;;;;11.50;6.60;;;;;;;11.22;80.40;95501.63;5092440;28;20447;-78
2022/10/08 02:36:51;;;;;;;7.37;5.67;;;;;;;11.20;79.95;95514.03;5091935;28;20438;-77
2022/10/08 02:39:21;;;;;;;6.13;5.53;;;;;;;11.11;81.14;95512.97;5091968;28;20438;-77
2022/10/08 02:41:51;;;;;;;11.50;6.70;;;;;;;11.01;81.23;95519.91;5092104;28;20478;-78
2022/10/08 02:44:26;;;;;;;9.17;7.20;;;;;;;10.95;82.23;95518.56;5039708;28;20486;-77
2022/10/08 02:46:56;;;;;;;8.83;6.80;;;;;;;10.95;81.26;95518.56;5091924;28;20445;-77
2022/10/08 02:49:28;;;;;;;12.67;7.30;;;;;;;10.96;81.66;95514.13;5039576;28;20449;-77
2022/10/08 02:51:57;;;;;;;11.20;7.30;;;;;;;10.98;81.90;95517.47;5091832;28;20468;-77
2022/10/08 02:54:24;;;;;;;12.00;7.53;;;;;;;11.00;81.79;95513.81;5091955;28;20862;-77
2022/10/08 02:56:56;;;;;;;10.93;7.80;;;;;;;11.02;82.21;95516.31;5091739;28;20952;-77
2022/10/08 02:59:25;;;;;;;13.30;8.20;;;;;;;11.03;81.76;95503.06;5039359;28;20445;-77
2022/10/08 03:01:57;;;;;;;8.90;6.90;;;;;;;11.02;81.68;95508.44;5092035;28;20477;-77
2022/10/08 03:04:28;;;;;;;10.93;7.23;;;;;;;11.01;82.38;95506.75;5040892;28;20485;-77
2022/10/08 03:06:57;;;;;;;13.13;7.03;;;;;;;11.02;82.67;95506.66;5092037;28;20451;-77
2022/10/08 03:09:26;;;;;;;11.87;7.57;;;;;;;11.03;81.48;95508.31;5091782;28;20924;-77
2022/10/08 03:11:54;;;;;;;9.40;7.80;;;;;;;11.06;82.05;95502.81;5096203;28;20460;-77
2022/10/08 03:14:24;;;;;;;12.83;8.13;;;;;;;11.05;81.87;95501.16;5112645;28;20440;-78
2022/10/08 03:16:53;;;;;;;9.53;7.07;;;;;;;11.00;82.23;95498.06;5116309;28;20452;-77
2022/10/08 03:19:21;;;;;;;10.20;7.57;;;;;;;11.01;82.09;95497.09;5080488;28;20538;-78
2022/10/08 03:21:52;;;;;;;7.87;6.60;;;;;;;11.00;82.74;95499.84;5116149;28;20859;-77
2022/10/08 03:24:19;;;;;;;7.50;6.60;;;;;;;10.95;82.84;95496.72;5115985;28;20440;-78
2022/10/08 03:26:46;;;;;;;8.00;6.53;;;;;;;10.94;82.84;95497.66;5115974;28;20428;-77
2022/10/08 03:29:13;;;;;;;10.00;7.70;;;;;;;10.92;82.52;95499.56;5115730;28;20443;-77
2022/10/08 03:31:39;;;;;;;7.50;5.73;;;;;;;10.70;82.82;95498.59;5116101;28;20492;-78
2022/10/08 03:34:08;;;;;;;9.80;7.17;;;;;;;10.61;82.79;95487.94;5115994;28;20493;-77
2022/10/08 03:36:35;;;;;;;7.20;6.23;;;;;;;10.59;83.39;95495.09;5115765;28;20497;-77
2022/10/08 03:39:02;;;;;;;9.70;7.07;;;;;;;10.61;83.39;95495.81;5115796;28;20444;-78
2022/10/08 03:41:30;;;;;;;9.17;7.87;;;;;;;10.52;83.80;95495.56;5115708;28;20440;-77
2022/10/08 03:43:57;;;;;;;8.47;7.13;;;;;;;10.38;83.92;95498.34;5115611;28;20442;-78
2022/10/08 03:46:25;;;;;;;30.23;9.57;;;;;;;10.15;86.00;95504.47;5115459;28;20544;-78
2022/10/08 03:48:51;;;;;;;12.33;7.80;;;;;;;10.02;86.95;95498.41;5115638;28;20443;-78
2022/10/08 03:51:22;;;;;;;10.40;6.37;;;;;;;10.11;86.48;95498.56;5115526;28;20478;-78
2022/10/08 03:53:49;;;;;;;10.40;6.33;;;;;;;10.17;86.89;95494.69;5115679;28;20448;-77
2022/10/08 03:56:18;;;;;;;7.20;6.03;;;;;;;10.24;87.43;95499.38;5115231;28;20496;-77
2022/10/08 03:58:45;;;;;;;11.80;7.60;;;;;;;10.20;87.28;95491.84;5104259;28;20513;-77
2022/10/08 04:01:15;;;;;;;12.37;7.73;;;;;;;10.21;87.31;95498.78;5096719;28;20444;-77
2022/10/08 04:03:42;;;;;;;8.17;7.27;;;;;;;10.26;87.71;95501.91;5095587;28;20818;-77
2022/10/08 04:06:09;;;;;;;13.13;7.77;;;;;;;10.35;86.79;95498.59;5095290;28;20485;-78
2022/10/08 04:08:37;;;;;;;6.93;5.73;;;;;;;10.37;86.50;95494.06;5095266;28;20453;-77
2022/10/08 04:11:05;;;;;;;10.10;7.80;;;;;;;10.41;86.93;95499.94;5095501;28;20457;-78
2022/10/08 04:13:33;;;;;;;9.30;7.40;;;;;;;10.42;86.13;95502.44;5095230;28;20444;-76
2022/10/08 04:16:02;;;;;;;9.77;7.27;;;;;;;10.44;85.10;95505.78;5095324;28;20514;-77
2022/10/08 04:18:29;;;;;;;12.40;8.00;;;;;;;10.39;85.26;95505.28;5094913;28;20939;-78
2022/10/08 04:20:59;;;;;;;11.77;6.97;;;;;;;10.34;84.72;95504.78;5095518;28;20444;-77
2022/10/08 04:23:27;;;;;;;10.80;8.23;;;;;;;10.31;84.96;95501.56;5095090;28;20425;-77
2022/10/08 04:25:55;;;;;;;12.50;6.70;;;;;;;10.28;84.98;95517.53;5094581;28;20978;-77
2022/10/08 04:28:23;;;;;;;11.07;8.50;;;;;;;10.29;85.24;95508.69;5095046;28;20506;-77
2022/10/08 04:30:57;;;;;;;11.70;9.07;;;;;;;10.34;84.86;95493.47;5095146;28;20444;-77
2022/10/08 04:33:24;;;;;;;10.30;8.40;;;;;;;10.41;84.47;95494.69;5094948;28;20471;-77
2022/10/08 04:35:51;;;;;;;9.53;8.00;;;;;;;10.39;83.91;95499.19;5094865;28;20453;-77
2022/10/08 04:38:18;;;;;;;22.47;9.53;;;;;;;10.23;84.04;95502.97;5094958;28;20504;-77
2022/10/08 04:40:45;;;;;;;22.23;9.87;;;;;;;10.02;85.28;95503.66;5094621;28;20448;-77
2022/10/08 04:43:13;;;;;;;11.67;8.30;;;;;;;10.04;85.79;95502.59;5094575;28;20452;-77
2022/10/08 04:45:44;;;;;;;19.27;8.90;;;;;;;10.07;85.98;95498.91;5042685;28;20488;-78
2022/10/08 04:48:11;;;;;;;18.70;9.50;;;;;;;10.12;85.98;95488.91;5094663;28;20449;-77
2022/10/08 04:50:38;;;;;;;18.97;8.37;;;;;;;10.20;85.90;95497.09;5094905;28;20825;-77
2022/10/08 04:53:05;;;;;;;17.40;8.73;;;;;;;10.25;85.24;95489.72;5095009;28;20465;-77
2022/10/08 04:55:32;;;;;;;21.53;10.03;;;;;;;10.34;86.04;95502.16;5094450;28;20449;-76
2022/10/08 04:58:00;;;;;;;16.13;9.13;;;;;;;10.41;85.06;95500.78;5103592;28;20956;-77
2022/10/08 05:00:28;;;;;;;23.50;9.50;;;;;;;10.46;85.31;95493.41;5114638;28;20444;-77
2022/10/08 05:02:55;;;;;;;13.90;9.67;;;;;;;10.55;85.18;95495.31;5114496;28;20477;-77
2022/10/08 05:05:22;;;;;;;12.40;9.67;;;;;;;10.61;84.78;95488.78;5114742;28;20536;-77
2022/10/08 05:07:49;;;;;;;13.60;9.10;;;;;;;10.60;85.66;95494.97;5114716;28;20543;-77
2022/10/08 05:10:16;;;;;;;18.30;9.53;;;;;;;10.57;84.89;95483.88;5114900;28;20445;-78
2022/10/08 05:12:43;;;;;;;11.60;8.27;;;;;;;10.62;85.77;95498.31;5114190;28;20452;-77
2022/10/08 05:15:11;;;;;;;12.87;9.27;;;;;;;10.69;85.40;95498.69;5113905;28;20448;-77
2022/10/08 05:17:39;;;;;;;10.37;8.60;;;;;;;10.73;84.89;95495.75;5114036;28;20447;-78
2022/10/08 05:20:06;;;;;;;16.00;10.17;;;;;;;10.74;83.87;95496.56;5114063;28;20439;-77
2022/10/08 05:22:33;;;;;;;14.23;9.10;;;;;;;10.76;85.32;95492.03;5113946;28;20502;-78
2022/10/08 05:25:00;;;;;;;17.70;9.43;;;;;;;10.79;84.54;95502.31;5113567;28;20455;-77
2022/10/08 05:27:27;;;;;;;14.73;9.77;;;;;;;10.79;85.13;95505.78;5113456;28;20439;-77
2022/10/08 05:29:53;;;;;;;10.73;9.63;;;;;;;10.77;84.38;95501.59;5113514;28;20454;-77
2022/10/08 05:32:20;;;;;;;19.70;10.43;;;;;;;10.79;85.21;95508.41;5077754;28;20458;-77
2022/10/08 05:34:48;;;;;;;20.10;12.10;;;;;;;10.95;85.00;95509.84;5113818;28;20456;-78
2022/10/08 05:37:15;;;;;;;17.20;10.87;;;;;;;11.57;85.18;95515.50;5112546;28;20445;-77
2022/10/08 05:39:42;;;;;;;37.83;12.33;;;;;;;12.48;80.95;95512.53;5113617;28;20446;-77
2022/10/08 05:42:09;;;;;;;16.77;10.37;;;;;;;13.28;76.51;95519.88;5113612;28;20496;-78
2022/10/08 05:44:35;;;;;;;17.93;10.60;;;;;;;14.01;74.13;95520.56;5113479;28;20451;-78
2022/10/08 05:47:02;;;;;;;14.93;8.77;;;;;;;14.66;70.24;95529.72;5114079;28;20483;-78
2022/10/08 05:49:29;;;;;;;14.33;9.40;;;;;;;15.19;69.63;95512.41;5114297;28;20444;-78
2022/10/08 05:51:57;;;;;;;12.00;9.10;;;;;;;15.86;67.67;95514.97;5113965;28;20474;-77
2022/10/08 05:54:24;;;;;;;15.20;9.40;;;;;;;16.37;63.57;95517.03;5113706;28;20496;-77
2022/10/08 05:56:51;;;;;;;15.30;8.67;;;;;;;16.62;62.85;95518.94;5113651;28;20475;-77
2022/10/08 05:59:20;;;;;;;13.40;7.90;;;;;;;16.83;61.71;95521.31;5113686;28;20444;-79
2022/10/08 06:01:47;;;;;;;15.63;9.33;;;;;;;17.16;61.48;95511.81;5114212;28;20507;-79
2022/10/08 06:04:13;;;;;;;15.37;8.93;;;;;;;17.59;59.19;95520.69;5113917;28;20445;-78
2022/10/08 06:06:42;;;;;;;11.50;8.60;;;;;;;17.96;58.26;95504.47;5113935;28;20483;-79
2022/10/08 06:09:12;;;;;;;12.30;7.83;;;;;;;18.42;57.31;95505.75;5113684;28;20496;-79
2022/10/08 06:11:39;;;;;;;11.10;8.07;;;;;;;18.75;55.69;95505.84;5114240;28;20453;-79
2022/10/08 06:14:07;;;;;;;10.37;7.80;;;;;;;18.84;54.05;95510.19;5077922;28;20431;-79
2022/10/08 06:16:35;;;;;;;11.13;7.20;;;;;;;18.96;54.43;95503.53;5058952;28;20839;-78
2022/10/08 06:19:02;;;;;;;12.80;7.67;;;;;;;19.00;53.96;95507.50;5103729;28;20442;-78
2022/10/08 06:21:29;;;;;;;12.90;9.43;;;;;;;18.97;53.80;95504.34;5057357;28;20448;-77
2022/10/08 06:23:57;;;;;;;13.60;9.37;;;;;;;19.11;53.70;95507.19;5111277;28;20451;-77
2022/10/08 06:26:28;;;;;;;21.90;9.60;;;;;;;19.17;53.62;95511.00;5098518;28;20513;-78
2022/10/08 06:28:55;;;;;;;12.20;8.23;;;;;;;19.09;53.50;95509.19;5113475;28;20455;-78
2022/10/08 06:31:22;;;;;;;9.30;7.90;;;;;;;18.44;55.00;95514.41;5112651;28;20749;-77
2022/10/08 06:33:49;;;;;;;10.13;8.50;;;;;;;18.58;55.92;95511.13;5113013;28;20443;-77
2022/10/08 06:36:17;;;;;;;9.23;8.00;;;;;;;18.63;56.02;95507.16;5112854;28;20802;-77
2022/10/08 06:38:49;;;;;;;8.83;7.70;;;;;;;18.65;55.18;95506.00;5106008;28;20501;-78
2022/10/08 06:41:16;;;;;;;9.40;7.40;;;;;;;18.75;55.69;95516.47;5092564;28;20446;-78
2022/10/08 06:43:44;;;;;;;35.13;10.17;;;;;;;18.83;55.69;95501.38;5112739;28;20500;-77
2022/10/08 06:46:11;;;;;;;12.70;8.63;;;;;;;19.04;55.00;95498.19;5112267;28;20486;-77
2022/10/08 06:48:38;;;;;;;8.53;7.60;;;;;;;19.24;55.08;95500.53;5110885;28;20431;-77
2022/10/08 06:51:07;;;;;;;15.53;7.80;;;;;;;19.30;54.34;95506.00;5109815;28;20450;-78
2022/10/08 06:53:35;;;;;;;10.73;8.17;;;;;;;19.25;54.08;95491.53;5119413;28;20446;-77
2022/10/08 06:56:03;;;;;;;16.13;8.60;;;;;;;19.32;54.35;95495.19;5083419;28;20451;-78
2022/10/08 06:58:31;;;;;;;13.40;8.90;;;;;;;19.40;54.46;95496.00;5119968;28;20527;-77
2022/10/08 07:01:04;;;;;;;15.37;9.80;;;;;;;18.97;54.60;95499.03;5119701;28;20455;-78
2022/10/08 07:03:31;;;;;;;14.10;8.50;;;;;;;19.01;55.34;95490.56;5119661;28;20442;-78
2022/10/08 07:06:02;;;;;;;9.60;7.87;;;;;;;19.18;55.13;95500.19;5119592;28;20515;-77
2022/10/08 07:08:29;;;;;;;9.40;7.23;;;;;;;19.26;55.19;95493.19;5119822;28;20435;-78
2022/10/08 07:11:03;;;;;;;10.50;6.90;;;;;;;19.25;55.46;95497.69;5119659;28;20442;-78
2022/10/08 07:13:29;;;;;;;11.37;7.10;;;;;;;19.30;55.60;95492.69;5119298;28;20827;-78
2022/10/08 07:16:03;;;;;;;12.03;7.30;;;;;;;18.78;56.43;95490.38;5114742;28;20467;-77
2022/10/08 07:18:30;;;;;;;10.37;7.30;;;;;;;18.83;56.57;95496.06;5110473;28;20482;-77
2022/10/08 07:20:57;;;;;;;9.77;7.50;;;;;;;18.91;57.03;95491.72;5119462;28;20447;-77
2022/10/08 07:23:24;;;;;;;9.70;7.60;;;;;;;18.83;57.00;95490.75;5119562;28;20454;-77
2022/10/08 07:25:58;;;;;;;13.77;8.70;;;;;;;18.80;57.27;95492.91;5106311;28;20985;-79
2022/10/08 07:28:25;;;;;;;11.30;7.50;;;;;;;18.34;58.56;95487.16;5104952;28;20467;-78
2022/10/08 07:30:52;;;;;;;13.70;8.30;;;;;;;17.77;60.10;95486.97;5099107;28;20504;-77
2022/10/08 07:33:20;;;;;;;9.50;6.60;;;;;;;18.03;60.83;95488.72;5111491;28;20462;-78
2022/10/08 07:35:47;;;;;;;9.57;7.87;;;;;;;18.28;60.40;95487.81;5114306;28;20504;-77
2022/10/08 07:38:17;;;;;;;13.10;7.97;;;;;;;18.65;58.91;95491.88;5045705;28;20452;-78
2022/10/08 07:40:44;;;;;;;8.43;7.50;;;;;;;18.82;58.12;95485.59;5115554;28;20467;-78
2022/10/08 07:43:11;;;;;;;10.10;7.97;;;;;;;18.81;57.96;95486.59;5102272;28;20436;-77
2022/10/08 07:45:44;;;;;;;9.23;8.30;;;;;;;18.88;58.78;95484.91;5098066;28;20450;-78
2022/10/08 07:48:11;;;;;;;9.80;7.57;;;;;;;19.11;57.59;95485.09;5098248;28;20621;-78
2022/10/08 07:50:39;;;;;;;10.43;6.77;;;;;;;19.39;57.25;95477.56;5098447;28;20850;-78
2022/10/08 07:53:06;;;;;;;18.07;7.97;;;;;;;19.56;57.36;95473.88;5098243;28;20476;-78
2022/10/08 07:55:33;;;;;;;7.80;6.03;;;;;;;19.72;55.75;95467.69;5098012;28;20838;-77
2022/10/08 07:58:00;;;;;;;9.10;7.00;;;;;;;19.73;55.67;95466.66;5097977;28;20501;-78
2022/10/08 08:00:27;;;;;;;7.90;7.20;;;;;;;19.39;55.94;95473.06;5095882;28;21013;-77
2022/10/08 08:02:53;;;;;;;7.57;6.60;;;;;;;19.44;57.03;95468.06;5094984;28;20976;-78
2022/10/08 08:05:20;;;;;;;7.37;6.67;;;;;;;19.49;56.66;95467.53;5094768;28;20443;-79
2022/10/08 08:07:49;;;;;;;7.73;6.27;;;;;;;19.59;57.05;95470.03;5094779;28;20483;-78
2022/10/08 08:10:16;;;;;;;12.03;7.70;;;;;;;19.64;56.76;95465.84;5094827;28;20455;-77
2022/10/08 08:12:42;;;;;;;9.17;8.03;;;;;;;19.59;56.51;95462.88;5094739;28;20809;-78
2022/10/08 08:15:10;;;;;;;11.20;7.83;;;;;;;19.54;55.89;95461.72;5094570;28;20945;-78
2022/10/08 08:17:37;;;;;;;10.10;7.63;;;;;;;19.59;56.53;95462.88;5059017;28;20447;-78
2022/10/08 08:20:04;;;;;;;8.00;6.93;;;;;;;19.65;56.59;95461.34;5042322;28;20452;-78
2022/10/08 08:22:31;;;;;;;8.90;8.00;;;;;;;19.79;56.72;95453.50;5042455;28;20440;-78
2022/10/08 08:24:59;;;;;;;13.30;7.67;;;;;;;19.75;56.60;95452.19;5094423;28;20440;-78
2022/10/08 08:27:26;;;;;;;12.80;9.00;;;;;;;19.96;56.51;95453.44;5094188;28;20553;-78
2022/10/08 08:29:52;;;;;;;11.07;7.60;;;;;;;20.17;56.01;95455.47;5094304;28;20455;-78
2022/10/08 08:32:20;;;;;;;16.23;7.80;;;;;;;20.31;55.47;95452.91;5093998;28;20935;-78
2022/10/08 08:34:47;;;;;;;10.23;6.80;;;;;;;20.30;55.29;95443.25;5094504;28;20469;-78
2022/10/08 08:37:13;;;;;;;10.10;6.90;;;;;;;20.32;56.19;95446.56;5094231;28;20451;-78
2022/10/08 08:39:40;;;;;;;9.00;6.23;;;;;;;20.32;55.07;95443.88;5094386;28;20482;-78
2022/10/08 08:42:25;;;;;;;6.70;6.00;;;;;;;20.30;55.45;95443.25;5094627;28;20440;-78
2022/10/08 08:44:58;;;;;;;14.77;6.83;;;;;;;20.41;54.38;95445.53;5094236;28;20938;-77
2022/10/08 08:47:33;;;;;;;8.70;6.37;;;;;;;20.46;55.40;95433.50;5094133;28;20597;-78
2022/10/08 08:50:03;;;;;;;11.90;6.53;;;;;;;20.20;55.92;95434.63;5093827;28;20450;-79
2022/10/08 08:52:33;;;;;;;13.30;7.80;;;;;;;20.47;56.05;95429.81;5093728;28;20484;-78
2022/10/08 08:55:01;;;;;;;12.37;6.90;;;;;;;20.48;54.00;95436.81;5094219;28;20443;-78
2022/10/08 08:57:37;;;;;;;8.97;6.60;;;;;;;19.89;54.32;95434.63;5093918;28;20444;-78
2022/10/08 09:00:12;;;;;;;21.77;8.13;;;;;;;20.20;55.95;95423.97;5093702;28;20478;-78
2022/10/08 09:02:50;;;;;;;6.90;6.30;;;;;;;20.32;54.93;95422.56;5094090;28;20439;-78
2022/10/08 09:05:20;;;;;;;14.30;6.83;;;;;;;20.49;54.52;95425.97;5094051;28;20479;-78
2022/10/08 09:07:50;;;;;;;8.77;5.63;;;;;;;20.66;54.08;95418.69;5093608;28;20484;-78
2022/10/08 09:10:21;;;;;;;13.47;6.10;;;;;;;20.61;52.77;95419.22;5093968;28;20470;-78
2022/10/08 09:12:52;;;;;;;9.90;5.70;;;;;;;20.57;51.96;95422.44;5092273;28;20942;-78
2022/10/08 09:15:21;;;;;;;6.40;5.80;;;;;;;20.58;50.43;95421.41;5093331;28;20435;-78
2022/10/08 09:17:51;;;;;;;7.43;5.00;;;;;;;20.68;52.19;95409.50;5094073;28;20443;-78
2022/10/08 09:20:21;;;;;;;6.97;5.13;;;;;;;20.86;52.13;95406.50;5093514;28;20535;-78
2022/10/08 09:22:50;;;;;;;8.60;6.37;;;;;;;20.87;51.59;95404.69;5093208;28;20440;-79
2022/10/08 09:25:20;;;;;;;9.70;6.40;;;;;;;20.58;51.50;95405.44;5093678;28;20448;-78
2022/10/08 09:27:53;;;;;;;8.57;6.20;;;;;;;20.52;52.02;95398.94;5092944;28;20571;-78
2022/10/08 09:30:33;;;;;;;6.50;5.87;;;;;;;20.34;51.20;95404.56;5093222;28;20448;-78
2022/10/08 09:33:03;;;;;;;6.17;5.57;;;;;;;20.40;51.33;95392.38;5093211;28;20436;-78
2022/10/08 09:35:33;;;;;;;5.67;5.20;;;;;;;20.47;52.10;95395.16;5093340;28;20505;-78
2022/10/08 09:38:01;;;;;;;9.47;5.53;;;;;;;20.54;51.05;95393.47;5093000;28;20447;-78
2022/10/08 09:40:28;;;;;;;9.27;6.33;;;;;;;20.58;51.49;95386.75;5093235;28;20444;-78
2022/10/08 09:43:11;;;;;;;6.43;5.83;;;;;;;20.56;51.98;95378.94;5093168;28;20448;-78
2022/10/08 09:45:44;;;;;;;6.73;6.03;;;;;;;20.19;52.02;95385.00;5093450;28;20527;-78
2022/10/08 09:48:17;;;;;;;10.50;5.97;;;;;;;19.94;53.31;95373.66;5093036;28;21061;-77
2022/10/08 09:50:51;;;;;;;10.53;5.90;;;;;;;20.21;53.70;95376.81;5093185;28;20505;-77
2022/10/08 09:53:19;;;;;;;8.93;5.57;;;;;;;20.38;53.06;95379.19;5092750;28;20452;-78
2022/10/08 09:55:53;;;;;;;6.07;5.57;;;;;;;20.49;51.82;95369.16;5092896;28;20968;-78
2022/10/08 09:58:22;;;;;;;6.50;5.87;;;;;;;20.55;52.40;95371.13;5092830;28;20447;-78
2022/10/08 10:00:58;;;;;;;6.40;5.80;;;;;;;20.55;51.99;95368.44;5092678;28;20481;-78
2022/10/08 10:03:26;;;;;;;10.00;5.90;;;;;;;20.57;52.19;95369.94;5092833;28;20436;-78
2022/10/08 10:05:56;;;;;;;6.20;5.60;;;;;;;20.63;51.59;95365.72;5092861;28;20498;-78
2022/10/08 10:08:45;;;;;;;11.50;6.70;;;;;;;20.68;51.44;95368.66;5092590;28;20491;-78
2022/10/08 10:11:17;;;;;;;9.23;6.20;;;;;;;20.71;51.56;95355.78;5092173;28;20914;-78
2022/10/08 10:13:49;;;;;;;6.40;5.80;;;;;;;20.73;52.17;95352.94;5092322;28;20451;-79
2022/10/08 10:16:20;;;;;;;6.37;5.40;;;;;;;20.59;50.83;95349.25;5092494;28;20443;-78
2022/10/08 10:18:52;;;;;;;6.30;5.70;;;;;;;20.54;50.98;95343.63;5092396;28;20436;-77
2022/10/08 10:21:25;;;;;;;7.30;6.40;;;;;;;20.53;50.24;95349.97;5092129;28;20861;-78
2022/10/08 10:24:03;;;;;;;7.33;6.07;;;;;;;20.60;50.62;95334.06;5091865;28;20447;-77
2022/10/08 10:26:34;;;;;;;8.00;5.47;;;;;;;20.69;51.01;95338.31;5092100;28;20439;-77
2022/10/08 10:29:08;;;;;;;12.23;6.30;;;;;;;20.80;51.30;95340.53;5092399;28;20448;-77
2022/10/08 10:31:40;;;;;;;7.73;5.80;;;;;;;20.83;50.55;95332.19;5092039;28;20498;-80
2022/10/08 10:34:13;;;;;;;6.47;5.87;;;;;;;20.82;50.65;95322.53;5091937;28;20451;-79
2022/10/08 10:36:45;;;;;;;10.13;6.00;;;;;;;20.72;49.91;95321.94;5056291;28;20520;-79
2022/10/08 10:39:22;;;;;;;6.83;5.70;;;;;;;20.69;50.72;95322.31;5092198;28;20439;-77
2022/10/08 10:41:56;;;;;;;13.60;5.83;;;;;;;20.65;50.06;95323.69;5074050;28;20446;-78
2022/10/08 10:44:31;;;;;;;5.63;5.13;;;;;;;20.56;51.01;95308.78;5092137;28;20452;-79
2022/10/08 10:47:01;;;;;;;7.57;5.87;;;;;;;20.49;50.53;95310.50;5091779;28;20502;-80
2022/10/08 10:49:33;;;;;;;6.87;5.60;;;;;;;20.53;50.88;95296.66;5092037;28;20497;-80
2022/10/08 10:52:10;;;;;;;6.20;5.60;;;;;;;20.55;50.77;95299.13;5091950;28;20554;-79
2022/10/08 10:54:52;;;;;;;6.47;5.33;;;;;;;20.45;50.32;95295.88;5091873;28;20436;-80
2022/10/08 10:57:32;;;;;;;7.20;5.53;;;;;;;20.44;50.42;95292.38;5091846;28;20451;-79
2022/10/08 11:00:05;;;;;;;6.90;5.37;;;;;;;20.53;51.39;95285.13;5092107;28;20467;-79
2022/10/08 11:02:38;;;;;;;9.90;6.57;;;;;;;20.63;51.32;95275.88;5092029;28;20447;-80
2022/10/08 11:05:11;;;;;;;6.43;5.87;;;;;;;20.75;51.46;95273.56;5091945;28;20455;-80
2022/10/08 11:07:56;;;;;;;5.50;5.00;;;;;;;20.82;52.49;95269.19;5091511;28;20533;-79
2022/10/08 11:10:35;;;;;;;5.13;4.50;;;;;;;20.77;50.18;95257.38;5091708;28;20448;-80
2022/10/08 11:13:17;;;;;;;6.47;5.10;;;;;;;20.58;49.09;95262.25;5091701;28;20493;-79
2022/10/08 11:15:53;;;;;;;5.50;5.00;;;;;;;20.66;49.63;95262.16;5091524;28;20977;-79
2022/10/08 11:18:28;;;;;;;11.20;5.33;;;;;;;20.71;49.93;95256.28;5092117;28;20855;-79
2022/10/08 11:21:06;;;;;;;5.70;5.13;;;;;;;20.81;49.41;95248.81;5091652;28;20447;-79
2022/10/08 11:23:47;;;;;;;5.00;4.57;;;;;;;20.91;48.83;95246.72;5042471;28;20459;-79
2022/10/08 11:26:24;;;;;;;8.63;5.20;;;;;;;20.98;49.10;95244.97;5091749;28;20447;-79
2022/10/08 11:29:00;;;;;;;7.13;5.50;;;;;;;21.08;47.67;95241.16;5091463;28;20986;-79
2022/10/08 11:31:37;;;;;;;6.63;5.63;;;;;;;21.08;47.59;95235.84;5091568;28;20447;-80
2022/10/08 11:34:05;;;;;;;6.57;5.03;;;;;;;21.06;48.09;95237.84;5091674;28;20439;-79
2022/10/08 11:36:37;;;;;;;8.63;5.30;;;;;;;21.12;48.47;95234.47;5094097;28;20444;-79
2022/10/08 11:39:13;;;;;;;5.57;4.97;;;;;;;21.05;47.72;95226.34;5095275;28;20439;-80
2022/10/08 11:41:47;;;;;;;10.10;4.67;;;;;;;20.95;46.52;95225.81;5059509;28;20864;-79
2022/10/08 11:44:15;;;;;;;5.07;4.57;;;;;;;20.94;47.18;95224.19;5095397;28;20451;-79